Time;durP1;ratioP1;P1;durP2;ratioP2;P2;SDS_P1;SDS_P2;PMS_P1;PMS_P2;Temp;Humidity;BMP_temperature;BMP_pressure;BME280_temperature;BME280_humidity;BME280_pressure;Samples;Min_cycle;Max_cycle;Signal;HPM_P1;HPM_P2
2022/01/11 10:00:34;;;;;;;4.17;2.70;;;-5.00;99.90;;;;;;3856814;37;20066;-70
2022/01/11 10:03:01;;;;;;;4.68;2.83;;;-5.20;99.90;;;;;;4397789;32;20238;-72
2022/01/11 10:05:27;;;;;;;4.62;2.50;;;-5.30;99.90;;;;;;4417527;32;20069;-71
2022/01/11 10:07:54;;;;;;;5.10;2.75;;;-5.40;99.90;;;;;;4409194;32;20515;-72
2022/01/11 10:10:24;;;;;;;4.05;2.50;;;-5.30;99.90;;;;;;4402461;32;20069;-71
2022/01/11 10:12:54;;;;;;;3.55;2.50;;;-5.20;99.90;;;;;;4381649;32;20077;-69
2022/01/11 10:15:35;;;;;;;3.92;2.58;;;-5.30;99.90;;;;;;4385847;32;20121;-71
2022/01/11 10:18:03;;;;;;;4.45;3.03;;;-5.30;99.90;;;;;;4388885;32;20073;-70
2022/01/11 10:20:30;;;;;;;4.95;2.78;;;-5.20;99.90;;;;;;4389880;32;20077;-71
2022/01/11 10:23:05;;;;;;;4.07;2.53;;;-5.10;99.90;;;;;;4365298;32;20499;-71
2022/01/11 10:25:46;;;;;;;4.55;2.58;;;-5.20;99.90;;;;;;4394172;32;20093;-72
2022/01/11 10:28:13;;;;;;;3.47;2.25;;;-5.00;99.90;;;;;;4382360;32;20149;-73
2022/01/11 10:30:40;;;;;;;5.30;2.70;;;-5.30;99.90;;;;;;4389801;32;20066;-71
2022/01/11 10:33:08;;;;;;;4.15;2.75;;;-5.40;99.90;;;;;;4387347;32;20183;-74
2022/01/11 10:35:44;;;;;;;5.50;2.90;;;-5.20;99.90;;;;;;4384428;32;20081;-74
2022/01/11 10:38:14;;;;;;;4.00;2.70;;;-5.30;99.90;;;;;;4387619;32;20070;-76
2022/01/11 10:40:45;;;;;;;4.35;2.85;;;-5.20;99.90;;;;;;4377742;32;20236;-72
2022/01/11 10:43:18;;;;;;;4.00;2.55;;;-5.20;99.90;;;;;;4380919;32;20501;-73
2022/01/11 10:45:48;;;;;;;4.60;2.70;;;-5.30;99.90;;;;;;4375423;32;20108;-71
2022/01/11 10:48:21;;;;;;;8.07;3.78;;;-5.20;99.90;;;;;;4374757;32;20097;-72
2022/01/11 10:50:53;;;;;;;6.00;2.97;;;-5.30;99.90;;;;;;4401761;32;20070;-73
2022/01/11 10:53:27;;;;;;;5.78;2.85;;;-5.20;99.90;;;;;;4378196;32;20493;-71
2022/01/11 10:56:00;;;;;;;4.22;2.47;;;-5.00;99.90;;;;;;4370627;32;20077;-73
2022/01/11 10:58:33;;;;;;;4.28;2.70;;;-5.30;99.90;;;;;;4369562;32;20149;-72
2022/01/11 11:00:59;;;;;;;4.03;2.70;;;-5.20;99.90;;;;;;4382178;32;20093;-73
2022/01/11 11:03:29;;;;;;;3.83;2.60;;;-5.30;99.90;;;;;;4372146;32;20086;-76
2022/01/11 11:06:07;;;;;;;4.35;3.00;;;-5.10;99.90;;;;;;4395961;32;20528;-73
2022/01/11 11:08:44;;;;;;;4.70;2.75;;;-5.30;99.90;;;;;;4371814;32;20081;-74
2022/01/11 11:11:15;;;;;;;5.37;2.92;;;-5.30;99.90;;;;;;4395618;32;20062;-72
2022/01/11 11:13:44;;;;;;;4.25;2.60;;;-5.30;99.90;;;;;;4366399;32;20532;-72
2022/01/11 11:16:17;;;;;;;3.58;2.58;;;-5.30;99.90;;;;;;4364315;32;20062;-70
2022/01/11 11:19:00;;;;;;;3.40;2.60;;;-5.10;99.90;;;;;;4347626;32;20121;-72
2022/01/11 11:21:38;;;;;;;4.78;3.25;;;-5.20;99.90;;;;;;4364353;32;20074;-76
2022/01/11 11:24:14;;;;;;;4.20;2.50;;;-5.30;99.90;;;;;;4376470;32;20094;-75
2022/01/11 11:26:46;;;;;;;5.05;2.55;;;-5.60;99.90;;;;;;4388197;32;20070;-75
2022/01/11 11:29:14;;;;;;;3.35;2.33;;;-5.20;99.90;;;;;;4367061;32;20076;-74
2022/01/11 11:31:41;;;;;;;4.32;2.92;;;-5.10;99.90;;;;;;4342507;32;20085;-72
2022/01/11 11:34:10;;;;;;;5.30;3.15;;;-4.90;99.90;;;;;;4378571;32;20111;-72
2022/01/11 11:36:39;;;;;;;4.60;2.58;;;-4.90;99.90;;;;;;4361394;32;20508;-72
2022/01/11 11:39:17;;;;;;;5.22;2.80;;;-5.20;99.90;;;;;;4357008;32;20120;-75
2022/01/11 11:41:55;;;;;;;4.35;2.60;;;-5.10;99.90;;;;;;4372081;32;20090;-73
2022/01/11 11:44:24;;;;;;;4.75;2.75;;;-5.10;99.90;;;;;;4368811;32;20107;-72
2022/01/11 11:46:54;;;;;;;4.87;3.10;;;-5.10;99.90;;;;;;4370518;32;20124;-73
2022/01/11 11:49:58;;;;;;;4.97;3.20;;;-5.10;99.90;;;;;;4352542;32;20077;-72
2022/01/11 11:52:42;;;;;;;3.70;2.45;;;-5.10;99.90;;;;;;4318623;33;20086;-71
2022/01/11 11:55:23;;;;;;;7.60;2.80;;;-5.30;99.90;;;;;;4369758;32;20117;-72
2022/01/11 11:58:09;;;;;;;4.07;2.62;;;-5.40;99.90;;;;;;4364932;32;20077;-71
2022/01/11 12:00:43;;;;;;;4.07;2.50;;;-5.10;99.90;;;;;;4369606;32;20066;-72
2022/01/11 12:03:20;;;;;;;4.65;2.58;;;-5.10;99.90;;;;;;4373062;32;20154;-71
2022/01/11 12:05:47;;;;;;;3.12;2.22;;;-5.30;99.90;;;;;;4359765;32;20097;-73
2022/01/11 12:08:33;;;;;;;4.22;2.72;;;-5.30;99.90;;;;;;4362957;32;20097;-71
2022/01/11 12:11:10;;;;;;;5.28;2.70;;;-5.10;99.90;;;;;;4380056;32;20166;-72
2022/01/11 12:13:48;;;;;;;4.60;2.60;;;-5.10;99.90;;;;;;4371799;32;20081;-72
2022/01/11 12:16:24;;;;;;;6.30;3.08;;;-5.10;99.90;;;;;;4364580;32;20069;-71
2022/01/11 12:18:56;;;;;;;4.60;2.93;;;-5.00;99.90;;;;;;4355369;32;20512;-71
2022/01/11 12:21:24;;;;;;;5.15;2.83;;;-5.00;99.90;;;;;;4358311;32;20096;-70
2022/01/11 12:23:54;;;;;;;5.53;3.10;;;-5.00;99.90;;;;;;4379656;32;20180;-70
2022/01/11 12:26:25;;;;;;;4.55;2.62;;;-5.00;99.90;;;;;;4367702;32;20147;-71
2022/01/11 12:29:08;;;;;;;4.30;2.67;;;-5.30;99.90;;;;;;4357759;32;20567;-71
2022/01/11 12:31:38;;;;;;;4.60;2.90;;;-5.10;99.90;;;;;;4364671;32;20144;-72
2022/01/11 12:34:10;;;;;;;5.72;3.40;;;-5.00;99.90;;;;;;4364253;32;20082;-71
2022/01/11 12:36:49;;;;;;;5.07;2.92;;;-5.00;99.90;;;;;;4357973;32;20070;-72
2022/01/11 12:39:16;;;;;;;5.60;3.53;;;-5.00;99.90;;;;;;4374196;32;20086;-70
2022/01/11 12:41:42;;;;;;;5.97;3.65;;;-5.30;99.90;;;;;;4377905;32;20069;-73
2022/01/11 12:44:22;;;;;;;4.45;2.92;;;-5.20;99.90;;;;;;4365445;32;20096;-71
2022/01/11 12:47:05;;;;;;;5.07;2.70;;;-5.00;99.90;;;;;;4362737;32;20150;-71
2022/01/11 12:49:35;;;;;;;5.47;3.37;;;-5.10;99.90;;;;;;4366748;32;20166;-68
2022/01/11 12:52:10;;;;;;;5.18;3.00;;;-5.00;99.90;;;;;;4362941;32;20108;-72
2022/01/11 12:54:48;;;;;;;5.47;3.30;;;-5.20;99.90;;;;;;4369556;32;20112;-71
2022/01/11 12:57:24;;;;;;;4.47;2.90;;;-5.40;99.90;;;;;;4363055;32;20072;-69
2022/01/11 13:00:04;;;;;;;5.93;2.90;;;-5.40;99.90;;;;;;4370622;32;20112;-70
2022/01/11 13:02:34;;;;;;;5.57;3.45;;;-5.50;99.90;;;;;;4363227;32;20186;-71
2022/01/11 13:05:06;;;;;;;5.82;3.17;;;-5.40;99.90;;;;;;4373696;32;20064;-72
2022/01/11 13:07:41;;;;;;;6.93;3.75;;;-5.20;99.90;;;;;;4373092;32;20074;-71
2022/01/11 13:10:18;;;;;;;6.22;3.87;;;-5.20;99.90;;;;;;4384212;32;20143;-72
2022/01/11 13:13:04;;;;;;;6.25;3.47;;;-5.10;99.90;;;;;;4374193;32;20452;-69
2022/01/11 13:15:50;;;;;;;6.03;3.43;;;-5.20;99.90;;;;;;4358296;32;20477;-69
2022/01/11 13:18:20;;;;;;;5.50;3.47;;;-5.30;99.90;;;;;;4370915;32;20070;-68
2022/01/11 13:20:59;;;;;;;6.30;3.30;;;-5.20;99.90;;;;;;4383328;32;20078;-70
2022/01/11 13:23:35;;;;;;;5.95;3.62;;;-5.40;99.90;;;;;;4375216;32;20113;-69
2022/01/11 13:26:17;;;;;;;5.28;3.33;;;-5.30;99.90;;;;;;4359522;32;20073;-70
2022/01/11 13:28:49;;;;;;;5.90;3.42;;;-5.30;99.90;;;;;;4373992;32;20159;-70
2022/01/11 13:31:21;;;;;;;5.57;3.25;;;-5.30;99.90;;;;;;4350293;32;20058;-71
2022/01/11 13:33:52;;;;;;;7.12;4.07;;;-5.40;99.90;;;;;;4371516;32;20174;-71
2022/01/11 13:36:31;;;;;;;5.45;3.47;;;-5.40;99.90;;;;;;4367768;32;20488;-69
2022/01/11 13:39:11;;;;;;;5.28;3.28;;;-5.20;99.90;;;;;;4388372;32;20080;-67
2022/01/11 13:41:45;;;;;;;6.53;4.15;;;-5.30;99.90;;;;;;4366155;32;20194;-66
2022/01/11 13:44:20;;;;;;;6.75;4.05;;;-5.40;99.90;;;;;;4377203;32;20432;-67
2022/01/11 13:46:50;;;;;;;6.93;4.30;;;-5.30;99.90;;;;;;4363490;32;20069;-72
2022/01/11 13:49:34;;;;;;;5.57;3.80;;;-5.30;99.90;;;;;;4384278;32;20119;-72
2022/01/11 13:52:12;;;;;;;7.20;4.30;;;-5.30;99.90;;;;;;4367404;32;20065;-72
2022/01/11 13:54:50;;;;;;;6.82;4.28;;;-5.10;99.90;;;;;;4374427;32;20066;-73
2022/01/11 13:57:29;;;;;;;5.68;4.05;;;-5.00;99.90;;;;;;4367221;32;20070;-71
2022/01/11 14:00:25;;;;;;;8.65;4.50;;;-5.30;99.90;;;;;;4363706;32;20085;-71
2022/01/11 14:02:53;;;;;;;8.93;4.53;;;-5.20;99.90;;;;;;4364630;32;20088;-72
2022/01/11 14:05:20;;;;;;;6.50;4.28;;;-5.20;99.90;;;;;;4379482;32;20065;-72
2022/01/11 14:07:58;;;;;;;7.55;4.28;;;-5.20;99.90;;;;;;4379241;32;20069;-70
2022/01/11 14:10:35;;;;;;;9.10;4.90;;;-5.20;99.90;;;;;;4353223;32;20106;-71
2022/01/11 14:13:07;;;;;;;7.90;4.82;;;-5.10;99.90;;;;;;4365719;32;20139;-72
2022/01/11 14:15:34;;;;;;;9.52;5.65;;;-5.10;99.90;;;;;;4355941;32;20451;-72
2022/01/11 14:18:10;;;;;;;7.68;5.00;;;-5.10;99.90;;;;;;4376405;32;20460;-72
2022/01/11 14:20:37;;;;;;;8.95;4.97;;;-5.10;99.90;;;;;;4364330;32;20090;-71
2022/01/11 14:23:16;;;;;;;7.82;4.90;;;-5.10;99.90;;;;;;4367183;32;20090;-72
2022/01/11 14:25:49;;;;;;;12.13;6.35;;;-5.20;99.90;;;;;;4360210;32;20082;-71
2022/01/11 14:28:24;;;;;;;8.48;5.47;;;-5.30;99.90;;;;;;4368085;32;20086;-69
2022/01/11 14:31:11;;;;;;;9.73;5.40;;;-5.20;99.90;;;;;;4361877;32;20074;-71
2022/01/11 14:33:38;;;;;;;9.93;5.95;;;-5.20;99.90;;;;;;4358053;32;20089;-72
2022/01/11 14:36:19;;;;;;;10.93;5.57;;;-5.10;99.90;;;;;;4371401;32;20158;-71
2022/01/11 14:38:52;;;;;;;12.02;5.78;;;-5.10;99.90;;;;;;4373035;32;20066;-72
2022/01/11 14:41:24;;;;;;;11.75;5.53;;;-4.90;99.90;;;;;;4367942;32;20092;-72
2022/01/11 14:43:56;;;;;;;12.90;6.82;;;-4.90;99.90;;;;;;4367919;32;20138;-71
2022/01/11 14:46:23;;;;;;;11.68;6.72;;;-5.00;99.90;;;;;;4376959;32;20170;-72
2022/01/11 14:48:50;;;;;;;11.10;6.75;;;-5.00;99.90;;;;;;4359071;32;20077;-69
2022/01/11 14:51:23;;;;;;;10.65;6.25;;;-5.00;99.90;;;;;;4376663;32;20077;-72
2022/01/11 14:53:57;;;;;;;10.32;6.25;;;-5.00;99.90;;;;;;4390616;32;20077;-70
2022/01/11 14:56:33;;;;;;;9.90;5.97;;;-5.10;99.90;;;;;;4360459;32;20500;-70
2022/01/11 14:59:05;;;;;;;9.82;6.22;;;-5.30;99.90;;;;;;4391342;32;20097;-67
2022/01/11 15:01:53;;;;;;;10.98;6.72;;;-5.10;99.90;;;;;;4372160;32;20177;-69
2022/01/11 15:04:29;;;;;;;12.68;6.75;;;-5.10;99.90;;;;;;4378138;32;20077;-69
2022/01/11 15:07:05;;;;;;;10.85;6.62;;;-5.10;99.90;;;;;;4364730;32;20129;-66
2022/01/11 15:09:41;;;;;;;10.27;6.70;;;-5.10;99.90;;;;;;4372541;32;20413;-69
2022/01/11 15:12:13;;;;;;;;;;;-5.30;99.90;;;;;;4358008;32;20500;-70
2022/01/11 15:14:40;;;;;;;10.05;6.40;;;-5.40;99.90;;;;;;4388547;32;20009;-70
2022/01/11 15:17:11;;;;;;;11.65;6.55;;;-5.40;99.90;;;;;;4378644;32;20095;-70
2022/01/11 15:19:38;;;;;;;10.07;6.12;;;-5.30;99.90;;;;;;4367941;32;20089;-70
2022/01/11 15:22:05;;;;;;;9.63;6.03;;;-5.30;99.90;;;;;;4380938;32;20058;-70
2022/01/11 15:24:32;;;;;;;10.75;6.20;;;-5.30;99.90;;;;;;4393903;32;20087;-71
2022/01/11 15:26:59;;;;;;;11.20;6.32;;;-5.40;99.90;;;;;;4380969;32;20149;-70
2022/01/11 15:29:28;;;;;;;9.70;6.60;;;-5.20;99.90;;;;;;4381465;32;20156;-70
2022/01/11 15:31:56;;;;;;;10.00;6.32;;;-5.30;99.90;;;;;;4394985;32;20101;-69
2022/01/11 15:34:23;;;;;;;9.90;6.10;;;-5.40;99.90;;;;;;4394510;32;20097;-68
2022/01/11 15:36:51;;;;;;;12.00;6.43;;;-5.30;99.90;;;;;;4395006;32;20148;-70
2022/01/11 15:39:19;;;;;;;12.57;6.15;;;-5.20;99.90;;;;;;4381996;32;20157;-70
2022/01/11 15:41:59;;;;;;;12.63;6.78;;;-5.20;99.90;;;;;;3857498;37;20440;-70
2022/01/11 15:44:27;;;;;;;14.07;6.45;;;-5.20;99.90;;;;;;4406533;32;20595;-70
2022/01/11 15:46:56;;;;;;;9.02;5.53;;;-5.10;99.90;;;;;;4418477;32;20511;-69
2022/01/11 15:49:23;;;;;;;9.07;5.05;;;-5.20;99.90;;;;;;4418187;32;20099;-69
2022/01/11 15:51:50;;;;;;;9.93;6.43;;;-5.20;99.90;;;;;;4418118;32;20168;-70
2022/01/11 15:54:20;;;;;;;10.00;6.50;;;-5.20;99.90;;;;;;4405848;32;20585;-69
2022/01/11 15:56:51;;;;;;;10.00;6.15;;;-5.30;99.90;;;;;;4393196;32;20575;-69
2022/01/11 15:59:19;;;;;;;10.02;6.18;;;-5.10;99.90;;;;;;4408846;32;20066;-69
2022/01/11 16:01:46;;;;;;;9.40;5.93;;;-5.10;99.90;;;;;;4422066;32;20084;-70
2022/01/11 16:04:13;;;;;;;11.25;7.15;;;-5.10;99.90;;;;;;4418305;32;20161;-68
2022/01/11 16:06:40;;;;;;;9.38;5.72;;;-5.00;99.90;;;;;;4417986;32;20432;-70
2022/01/11 16:09:07;;;;;;;10.35;5.65;;;-5.10;99.90;;;;;;4405490;32;20077;-70
2022/01/11 16:11:34;;;;;;;10.70;6.85;;;-5.20;99.90;;;;;;4405303;32;20106;-70
2022/01/11 16:14:03;;;;;;;11.25;6.93;;;-5.30;99.90;;;;;;4417626;32;20474;-70
2022/01/11 16:16:31;;;;;;;12.10;7.43;;;-5.40;99.90;;;;;;4418135;32;20193;-69
2022/01/11 16:18:57;;;;;;;12.98;6.57;;;-5.30;99.90;;;;;;4419528;32;20165;-69
2022/01/11 16:21:23;;;;;;;11.55;7.93;;;-5.20;99.90;;;;;;4406323;32;20507;-68
2022/01/11 16:23:50;;;;;;;13.68;8.20;;;-5.30;99.90;;;;;;4418269;32;20460;-70
2022/01/11 16:26:16;;;;;;;13.05;7.78;;;-5.50;99.90;;;;;;4405228;32;20148;-69
2022/01/11 16:28:44;;;;;;;13.30;7.62;;;-5.40;99.90;;;;;;4392771;32;20081;-70
2022/01/11 16:31:11;;;;;;;12.48;7.60;;;-5.40;99.90;;;;;;4415082;32;20073;-70
2022/01/11 16:33:38;;;;;;;16.70;10.52;;;-5.60;99.90;;;;;;4395596;32;20456;-69
2022/01/11 16:36:05;;;;;;;13.48;9.85;;;-5.50;99.90;;;;;;4403291;32;20070;-70
2022/01/11 16:38:33;;;;;;;11.95;7.97;;;-5.60;99.90;;;;;;4390029;32;20130;-70
2022/01/11 16:43:30;;;;;;;11.77;7.70;;;-5.70;99.90;;;;;;4402474;32;20082;-70
2022/01/11 16:46:11;;;;;;;12.75;8.02;;;-5.80;99.90;;;;;;4376920;32;20483;-70
2022/01/11 16:48:40;;;;;;;9.52;6.90;;;-5.70;99.90;;;;;;4377566;32;20470;-67
2022/01/11 16:51:09;;;;;;;13.82;7.85;;;-5.70;99.90;;;;;;4389623;32;20085;-67
2022/01/11 16:53:36;;;;;;;10.60;7.05;;;-5.70;99.90;;;;;;4392352;32;20093;-69
2022/01/11 16:56:03;;;;;;;12.30;7.57;;;-5.70;99.90;;;;;;4393699;32;20088;-67
2022/01/11 16:58:30;;;;;;;12.30;7.12;;;-5.60;99.90;;;;;;4392045;32;20519;-69
2022/01/11 17:00:59;;;;;;;12.85;7.47;;;-5.60;99.90;;;;;;4379516;32;20162;-68
2022/01/11 17:03:25;;;;;;;10.40;6.12;;;-5.60;99.90;;;;;;4392114;32;20504;-68
2022/01/11 17:05:52;;;;;;;11.12;6.82;;;-5.50;99.90;;;;;;4391852;32;20086;-68
2022/01/11 17:08:18;;;;;;;12.23;7.55;;;-5.60;99.90;;;;;;4393400;32;20151;-68
2022/01/11 17:10:45;;;;;;;11.20;7.28;;;-5.50;99.90;;;;;;4379209;32;20074;-68
2022/01/11 17:13:11;;;;;;;12.68;7.65;;;-5.50;99.90;;;;;;4393043;32;20145;-70
2022/01/11 17:15:38;;;;;;;14.77;8.35;;;-5.40;99.90;;;;;;4367257;32;20166;-71
2022/01/11 17:18:05;;;;;;;13.55;7.72;;;-5.50;99.90;;;;;;4391768;32;20068;-69
2022/01/11 17:20:32;;;;;;;12.73;7.05;;;-5.50;99.90;;;;;;4379105;32;20301;-70
2022/01/11 17:22:59;;;;;;;12.75;7.65;;;-5.50;99.90;;;;;;4366933;32;20078;-69
2022/01/11 17:25:26;;;;;;;12.27;7.50;;;-5.70;99.90;;;;;;4391562;32;20072;-68
2022/01/11 17:27:53;;;;;;;13.70;9.20;;;-5.80;99.90;;;;;;4391701;32;20112;-69
2022/01/11 17:30:21;;;;;;;19.77;12.23;;;-5.80;99.90;;;;;;4366685;32;20468;-69
2022/01/11 17:32:51;;;;;;;20.02;12.43;;;-5.90;99.90;;;;;;4391885;32;20088;-69
2022/01/11 17:35:19;;;;;;;19.42;11.73;;;-5.80;99.90;;;;;;4378858;32;20079;-70
2022/01/11 17:37:45;;;;;;;18.92;11.98;;;-5.80;99.90;;;;;;4378776;32;20550;-69
2022/01/11 17:40:15;;;;;;;20.70;12.70;;;-5.80;99.90;;;;;;4393895;32;20170;-69
2022/01/11 17:42:43;;;;;;;22.13;12.68;;;-5.90;99.90;;;;;;4383336;32;20080;-69
2022/01/11 17:45:11;;;;;;;19.17;11.93;;;-5.80;99.90;;;;;;4392399;32;20181;-70
2022/01/11 17:47:38;;;;;;;18.62;11.55;;;-5.90;99.90;;;;;;4378649;32;20080;-68
2022/01/11 17:50:07;;;;;;;19.70;11.63;;;-5.90;99.90;;;;;;4391252;32;20093;-70
2022/01/11 17:52:34;;;;;;;18.58;10.90;;;-5.80;99.90;;;;;;4391362;32;20535;-69
2022/01/11 17:55:02;;;;;;;16.60;10.43;;;-5.80;99.90;;;;;;4378545;32;20077;-68
2022/01/11 17:57:29;;;;;;;18.95;10.70;;;-5.70;99.90;;;;;;4391207;32;20093;-69
2022/01/11 17:59:56;;;;;;;19.50;11.00;;;-5.80;99.90;;;;;;4378466;32;20452;-69
2022/01/11 18:02:23;;;;;;;18.85;11.15;;;-5.80;99.90;;;;;;4391130;32;20066;-69
2022/01/11 18:04:50;;;;;;;20.12;11.43;;;-5.80;99.90;;;;;;4377877;32;20573;-68
2022/01/11 18:07:17;;;;;;;17.98;10.88;;;-5.90;99.90;;;;;;4379195;32;20101;-68
2022/01/11 18:09:45;;;;;;;17.85;10.25;;;-5.80;99.90;;;;;;4378646;32;20078;-69
2022/01/11 18:12:16;;;;;;;19.23;10.30;;;-5.60;99.90;;;;;;4390688;32;20077;-69
2022/01/11 18:14:44;;;;;;;17.10;10.88;;;-5.70;99.90;;;;;;4378859;32;20555;-71
2022/01/11 18:17:11;;;;;;;16.25;9.82;;;-5.70;99.90;;;;;;4378512;32;20088;-69
2022/01/11 18:19:38;;;;;;;14.63;8.25;;;-5.60;99.90;;;;;;4391113;32;20116;-69
2022/01/11 18:22:05;;;;;;;17.33;10.40;;;-5.40;99.90;;;;;;4365945;32;20081;-69
2022/01/11 18:24:32;;;;;;;20.45;12.95;;;-5.40;99.90;;;;;;4378246;32;20144;-68
2022/01/11 18:27:00;;;;;;;20.40;12.10;;;-5.80;99.90;;;;;;4390890;32;20050;-69
2022/01/11 18:29:26;;;;;;;21.20;13.85;;;-5.70;99.90;;;;;;4378586;32;20516;-69
2022/01/11 18:31:53;;;;;;;24.85;15.23;;;-5.80;99.90;;;;;;4378080;32;20069;-69
2022/01/11 18:34:20;;;;;;;21.65;13.15;;;-5.90;99.90;;;;;;4377921;32;20078;-69
2022/01/11 18:36:47;;;;;;;24.30;15.80;;;-5.90;99.90;;;;;;4392113;32;20085;-70
2022/01/11 18:39:14;;;;;;;22.42;13.43;;;-6.00;99.90;;;;;;4391553;32;20162;-69
2022/01/11 18:41:40;;;;;;;25.08;14.15;;;-6.00;99.90;;;;;;4377768;32;20098;-70
2022/01/11 18:44:08;;;;;;;21.35;12.63;;;-5.90;99.90;;;;;;4378344;32;20085;-69
2022/01/11 18:46:34;;;;;;;16.95;11.10;;;-6.10;99.90;;;;;;4392087;32;20097;-70
2022/01/11 18:49:01;;;;;;;18.25;11.05;;;-6.00;99.90;;;;;;4365265;32;20153;-70
2022/01/11 18:51:28;;;;;;;17.80;11.23;;;-6.10;99.90;;;;;;4377994;32;20161;-70
2022/01/11 18:54:01;;;;;;;21.25;11.55;;;-6.10;99.90;;;;;;4377769;32;20094;-69
2022/01/11 18:56:32;;;;;;;20.15;11.02;;;-6.20;99.90;;;;;;4366285;32;20175;-68
2022/01/11 18:58:59;;;;;;;20.42;11.77;;;-6.10;99.90;;;;;;4393418;32;20464;-69
2022/01/11 19:01:29;;;;;;;19.70;11.60;;;-6.20;99.90;;;;;;4366549;32;20074;-69
2022/01/11 19:03:56;;;;;;;19.05;11.15;;;-6.20;99.90;;;;;;4378235;32;20104;-69
2022/01/11 19:09:11;;;;;;;18.40;11.20;;;-6.20;99.90;;;;;;3857320;37;20070;-70
2022/01/11 19:11:38;;;;;;;18.25;11.07;;;-6.10;99.90;;;;;;4418350;32;20092;-70
2022/01/11 19:14:05;;;;;;;18.98;10.55;;;-6.20;99.90;;;;;;4405413;32;20113;-70
2022/01/11 19:16:31;;;;;;;18.40;10.90;;;-6.20;99.90;;;;;;4405565;32;20062;-70
2022/01/11 19:18:58;;;;;;;16.75;10.40;;;-6.10;99.90;;;;;;4405740;32;20092;-68
2022/01/11 19:21:25;;;;;;;15.68;9.68;;;-6.20;99.90;;;;;;4392974;32;20089;-68
2022/01/11 19:23:51;;;;;;;19.58;10.60;;;-6.20;99.90;;;;;;4406126;32;20069;-70
2022/01/11 19:26:23;;;;;;;17.23;10.25;;;-6.20;99.90;;;;;;4398557;32;20088;-70
2022/01/11 19:28:52;;;;;;;17.98;10.57;;;-6.20;99.90;;;;;;4406280;32;20100;-68
2022/01/11 19:31:20;;;;;;;17.90;9.93;;;-6.20;99.90;;;;;;4417701;32;20070;-70
2022/01/11 19:33:49;;;;;;;18.23;10.25;;;-6.10;99.90;;;;;;4403267;32;20084;-68
2022/01/11 19:36:16;;;;;;;17.60;10.43;;;-6.10;99.90;;;;;;4390087;32;20171;-68
2022/01/11 19:38:43;;;;;;;18.10;9.65;;;-6.20;99.90;;;;;;4403023;32;20070;-70
2022/01/11 19:41:09;;;;;;;18.25;9.93;;;-6.20;99.90;;;;;;4402499;32;20464;-70
2022/01/11 19:43:36;;;;;;;17.00;10.00;;;-6.20;99.90;;;;;;4402627;32;20516;-69
2022/01/11 19:46:02;;;;;;;17.73;10.10;;;-6.10;99.90;;;;;;4377286;32;20154;-68
2022/01/11 19:48:29;;;;;;;16.77;9.77;;;-6.20;99.90;;;;;;4402717;32;20078;-70
2022/01/11 19:51:00;;;;;;;17.12;9.98;;;-6.20;99.90;;;;;;4404436;32;20075;-68
2022/01/11 19:53:31;;;;;;;17.23;10.52;;;-6.30;99.90;;;;;;4390628;32;20069;-68
2022/01/11 19:55:59;;;;;;;18.50;10.07;;;-6.20;99.90;;;;;;4402952;32;20084;-68
2022/01/11 19:58:25;;;;;;;16.50;10.05;;;-6.30;99.90;;;;;;4403649;32;20181;-69
2022/01/11 20:00:51;;;;;;;15.60;8.85;;;-6.30;99.90;;;;;;4402502;32;20186;-70
2022/01/11 20:03:18;;;;;;;18.90;9.45;;;-6.30;99.90;;;;;;4389775;32;20499;-69
2022/01/11 20:05:47;;;;;;;16.05;8.80;;;-6.30;99.90;;;;;;4403991;32;20095;-69
2022/01/11 20:08:15;;;;;;;19.27;10.13;;;-6.30;99.90;;;;;;4401857;32;20073;-70
2022/01/11 20:10:47;;;;;;;15.52;9.02;;;-6.40;99.90;;;;;;4389438;32;20166;-70
2022/01/11 20:13:16;;;;;;;17.50;9.43;;;-6.30;99.90;;;;;;4402836;32;20123;-70
2022/01/11 20:15:43;;;;;;;17.17;9.50;;;-6.50;99.90;;;;;;4390630;32;20094;-69
2022/01/11 20:18:11;;;;;;;14.40;8.68;;;-6.40;99.90;;;;;;4389428;32;20170;-70
2022/01/11 20:20:39;;;;;;;15.68;9.63;;;-6.40;99.90;;;;;;4393267;32;20077;-70
2022/01/11 20:28:38;;;;;;;15.68;8.48;;;-6.40;99.90;;;;;;4392675;32;20108;-69
2022/01/11 20:31:05;;;;;;;15.05;8.18;;;-6.40;99.90;;;;;;4392106;32;20589;-70
2022/01/11 20:33:33;;;;;;;14.57;8.15;;;-6.30;99.90;;;;;;4379401;32;20539;-70
2022/01/11 20:36:01;;;;;;;15.52;8.30;;;-6.40;99.90;;;;;;4379312;32;20101;-70
2022/01/11 20:38:28;;;;;;;14.07;7.78;;;-6.30;99.90;;;;;;4392134;32;20156;-69
2022/01/11 20:40:55;;;;;;;15.30;8.32;;;-6.40;99.90;;;;;;4393271;32;20076;-70
2022/01/11 20:43:22;;;;;;;16.25;8.27;;;-6.40;99.90;;;;;;4379364;32;20065;-69
2022/01/11 20:45:49;;;;;;;13.90;7.72;;;-6.40;99.90;;;;;;4392966;32;20069;-68
2022/01/11 20:48:15;;;;;;;16.27;8.57;;;-6.40;99.90;;;;;;4379283;32;20499;-69
2022/01/11 20:50:55;;;;;;;14.23;7.65;;;-6.40;99.90;;;;;;4393133;32;20513;-69
2022/01/11 20:53:24;;;;;;;17.10;8.65;;;-6.30;99.90;;;;;;4391375;32;20543;-71
2022/01/11 20:55:57;;;;;;;13.57;7.72;;;-6.40;99.90;;;;;;4378921;32;20148;-70
2022/01/11 20:58:34;;;;;;;16.40;8.18;;;-6.50;99.90;;;;;;4391412;32;20078;-70
2022/01/11 21:01:12;;;;;;;13.23;7.78;;;-6.50;99.90;;;;;;4391391;32;20158;-69
2022/01/11 21:03:46;;;;;;;13.50;7.57;;;-6.40;99.90;;;;;;4379599;32;20055;-70
2022/01/11 21:06:13;;;;;;;14.10;7.07;;;-6.40;99.90;;;;;;4378890;32;20509;-69
2022/01/11 21:08:41;;;;;;;16.48;7.25;;;-6.40;99.90;;;;;;4383927;32;20088;-69
2022/01/11 21:11:08;;;;;;;12.25;7.30;;;-6.40;99.90;;;;;;4379858;32;20070;-69
2022/01/11 21:13:38;;;;;;;13.88;7.68;;;-6.40;99.90;;;;;;4391294;32;20082;-70
2022/01/11 21:16:27;;;;;;;13.02;7.78;;;-6.50;99.90;;;;;;4366407;32;20093;-68
2022/01/11 21:21:38;;;;;;;13.85;8.82;;;-6.40;99.90;;;;;;4381600;32;20101;-68
2022/01/11 21:24:07;;;;;;;12.80;7.50;;;-6.50;99.90;;;;;;4383356;32;20089;-70
2022/01/11 21:26:34;;;;;;;12.32;6.75;;;-6.50;99.90;;;;;;4392405;32;20086;-70
2022/01/11 21:29:00;;;;;;;12.07;6.60;;;-6.50;99.90;;;;;;4392297;32;20070;-70
2022/01/11 21:31:27;;;;;;;10.40;6.35;;;-6.50;99.90;;;;;;4391826;32;20076;-70
2022/01/11 21:33:56;;;;;;;11.50;6.72;;;-6.50;99.90;;;;;;4390710;32;20518;-69
2022/01/11 21:36:23;;;;;;;11.10;6.32;;;-6.50;99.90;;;;;;4378762;32;20078;-69
2022/01/11 21:38:49;;;;;;;12.07;6.47;;;-6.60;99.90;;;;;;4378398;32;20519;-70
2022/01/11 21:41:17;;;;;;;13.62;7.40;;;-6.50;99.90;;;;;;4392694;32;20065;-69
2022/01/11 21:43:44;;;;;;;16.67;6.55;;;-6.40;99.90;;;;;;4392729;32;20082;-70
2022/01/11 21:46:11;;;;;;;13.52;6.97;;;-6.40;99.90;;;;;;4365906;32;20137;-69
2022/01/11 21:48:38;;;;;;;13.75;7.12;;;-6.30;99.90;;;;;;4392209;32;20077;-69
2022/01/11 21:51:05;;;;;;;11.73;6.37;;;-6.30;99.90;;;;;;4378360;32;20313;-70
2022/01/11 21:53:33;;;;;;;12.02;6.95;;;-6.30;99.90;;;;;;4391045;32;20080;-69
2022/01/11 21:56:00;;;;;;;14.45;7.30;;;-6.30;99.90;;;;;;4378840;32;20158;-69
2022/01/11 21:58:27;;;;;;;12.57;6.93;;;-6.40;99.90;;;;;;4390562;32;20113;-69
2022/01/11 22:00:53;;;;;;;11.12;6.70;;;-6.50;99.90;;;;;;4390598;32;20171;-68
2022/01/11 22:03:20;;;;;;;12.82;6.45;;;-6.30;99.90;;;;;;4377673;32;20161;-68
2022/01/11 22:05:48;;;;;;;12.98;7.07;;;-6.40;99.90;;;;;;4377707;32;20100;-70
2022/01/11 22:08:15;;;;;;;17.60;6.93;;;-6.50;99.90;;;;;;4390093;32;20085;-71
2022/01/11 22:10:43;;;;;;;12.10;6.75;;;-6.50;99.90;;;;;;4390740;32;20490;-69
2022/01/11 22:13:27;;;;;;;13.88;7.60;;;-6.50;99.90;;;;;;4377771;32;20169;-68
2022/01/11 22:16:19;;;;;;;11.80;6.50;;;-6.50;99.90;;;;;;4379785;32;20090;-68
2022/01/11 22:18:46;;;;;;;13.32;7.30;;;-6.60;99.90;;;;;;4380314;32;20078;-70
2022/01/11 22:21:12;;;;;;;13.05;7.07;;;-6.60;99.90;;;;;;4390157;32;20080;-69
2022/01/11 22:23:39;;;;;;;10.23;7.05;;;-6.60;99.90;;;;;;4391980;32;20086;-69
2022/01/11 22:26:05;;;;;;;13.50;7.55;;;-6.60;99.90;;;;;;4377776;32;20062;-67
2022/01/11 22:28:32;;;;;;;14.02;6.70;;;-6.60;99.90;;;;;;4377646;32;20460;-69
2022/01/11 22:30:59;;;;;;;14.30;7.40;;;-6.60;99.90;;;;;;4377777;32;20549;-70
2022/01/11 22:33:30;;;;;;;12.45;6.72;;;-6.60;99.90;;;;;;4377578;32;20120;-70
2022/01/11 22:35:58;;;;;;;12.45;7.25;;;-6.60;99.90;;;;;;4365497;32;20527;-69
2022/01/11 22:38:24;;;;;;;11.52;6.78;;;-6.50;99.90;;;;;;4390326;32;20573;-69
2022/01/11 22:40:55;;;;;;;12.50;6.85;;;-6.50;99.90;;;;;;4389999;32;20080;-70
2022/01/11 22:43:23;;;;;;;14.85;7.18;;;-6.50;99.90;;;;;;4377898;32;20074;-70
2022/01/11 22:45:49;;;;;;;13.32;7.00;;;-6.50;99.90;;;;;;4391435;32;20074;-70
2022/01/11 22:48:17;;;;;;;12.52;6.85;;;-6.50;99.90;;;;;;4391891;32;20090;-69
2022/01/11 22:50:43;;;;;;;10.32;6.43;;;-6.60;99.90;;;;;;4378263;32;20072;-68
2022/01/11 22:53:12;;;;;;;12.65;6.47;;;-6.60;99.90;;;;;;4391808;32;20186;-70
2022/01/11 22:55:38;;;;;;;14.52;7.15;;;-6.60;99.90;;;;;;4378049;32;20066;-69
2022/01/11 22:58:05;;;;;;;14.60;7.00;;;-6.60;99.90;;;;;;4377290;32;20102;-68
2022/01/11 23:00:47;;;;;;;16.80;7.70;;;-6.60;99.90;;;;;;4377447;32;20456;-70
2022/01/11 23:03:15;;;;;;;17.40;7.65;;;-6.60;99.90;;;;;;4389758;32;20076;-69
2022/01/11 23:05:42;;;;;;;15.18;7.78;;;-6.60;99.90;;;;;;4391354;32;20081;-70
2022/01/11 23:08:09;;;;;;;13.93;6.82;;;-6.70;99.90;;;;;;4377058;32;20088;-70